Akimaru No20 — JK5499 — position and weather

sailwx.info

Track history (hours):
 
Tides and Currents Weather Stations Pressure Air Temp Water Temp Dewpoint Dewpoint Depression Visibility Wind Speed Wind Dir Waves Ship Positions

Akimaru No20

Last reported at 2017-Dec-28 04:00 UTC. Time now 2018-Jan-21 08:44 UTC.
Position N 35°30' E 139°50'.
Warning: this ship's position is 24 days out of date.

Length 29 m.

Type: Tug. MMSI: 431400676.

Date/timePositionNaut miles runAvg speedWind from/ knotsBaromVisibWave heightAir tempDewpointWater temp
2017-Dec-28 04:00N 35°30' E 139°50'511.0
2017-Dec-28 03:30N 35°27' E 139°45'510.3
2017-Dec-28 03:00N 35°24' E 139°40'2 2.8
2017-Dec-28 02:24N 35°23' E 139°38'0 0.0
2017-Dec-28 01:54N 35°23' E 139°38'0 0.0
2017-Dec-28 01:24N 35°23' E 139°38'0 0.0
2017-Dec-28 01:00N 35°23' E 139°38'0 0.0
2017-Dec-28 00:27N 35°23' E 139°38'0 0.0
2017-Dec-27 23:45N 35°23' E 139°38'0 0.0
2017-Dec-27 23:25N 35°23' E 139°38'0 0.3
2017-Dec-27 23:00N 35°23' E 139°38'2 3.4
2017-Dec-27 22:29N 35°24' E 139°40'1 2.9
2017-Dec-27 22:00N 35°24' E 139°42'2 4.1
2017-Dec-27 21:29N 35°26' E 139°44'2 3.5
2017-Dec-27 21:00N 35°27' E 139°43'0 0.8
2017-Dec-27 20:30N 35°27' E 139°44'5 9.2
2017-Dec-27 20:00N 35°29' E 139°49'3 0.2
2017-Dec-27 03:58N 35°31' E 139°51'4 7.9
2017-Dec-27 03:27N 35°29' E 139°47'3 6.7
2017-Dec-27 02:58N 35°27' E 139°43'0 0.0
2017-Dec-27 02:28N 35°27' E 139°43'0 0.4
2017-Dec-27 02:00N 35°27' E 139°43'1 1.7
2017-Dec-27 01:30N 35°27' E 139°42'1 1.3
2017-Dec-27 00:55N 35°27' E 139°43'1 2.0
2017-Dec-27 00:29N 35°27' E 139°42'0 0.0
2017-Dec-26 23:59N 35°28' E 139°42'0 0.0
2017-Dec-26 23:29N 35°28' E 139°42'0 0.0
2017-Dec-26 22:59N 35°28' E 139°42'0 0.0
2017-Dec-26 22:29N 35°28' E 139°42'0 0.0
2017-Dec-26 21:56N 35°28' E 139°42'0 0.0
2017-Dec-26 06:51N 35°28' E 139°42'0 0.7
2017-Dec-26 06:29N 35°28' E 139°42'1 1.6
2017-Dec-26 05:58N 35°27' E 139°43'1 1.9
2017-Dec-26 05:30N 35°28' E 139°42'1 1.9
2017-Dec-26 04:59N 35°27' E 139°43'0 0.3
2017-Dec-26 04:30N 35°27' E 139°43'0 0.4
2017-Dec-26 04:00N 35°28' E 139°43'0 0.6
2017-Dec-26 03:27N 35°27' E 139°43'0 0.0
2017-Dec-26 02:54N 35°27' E 139°43'0 0.0
2017-Dec-26 02:27N 35°27' E 139°43'0 0.0
2017-Dec-26 01:57N 35°27' E 139°43'0 0.0
2017-Dec-26 01:30N 35°27' E 139°43'0 0.5
2017-Dec-26 00:59N 35°27' E 139°43'0 0.0
2017-Dec-26 00:26N 35°27' E 139°43'0 0.0
2017-Dec-25 23:59N 35°27' E 139°43'0 0.0
2017-Dec-25 23:29N 35°27' E 139°43'0 0.0
2017-Dec-25 22:56N 35°27' E 139°43'0 0.0
2017-Dec-25 22:26N 35°27' E 139°43'0 0.0
2017-Dec-25 21:59N 35°27' E 139°43'0 0.0
2017-Dec-25 21:29N 35°27' E 139°43'0 0.0
2017-Dec-25 20:59N 35°27' E 139°43'0 0.0
2017-Dec-25 07:07N 35°27' E 139°43'0 0.0
2017-Dec-25 06:58N 35°27' E 139°43'0 0.5
2017-Dec-25 06:30N 35°27' E 139°43'0 0.4
2017-Dec-25 05:59N 35°27' E 139°43'0 0.0
2017-Dec-25 05:20N 35°27' E 139°43'0 0.0
2017-Dec-25 04:59N 35°27' E 139°43'0 0.1
2017-Dec-25 04:23N 35°27' E 139°44'0 0.0
2017-Dec-25 03:56N 35°27' E 139°44'0 0.0
2017-Dec-25 03:20N 35°27' E 139°44'0 0.7
2017-Dec-25 02:54N 35°27' E 139°43'0 0.0
2017-Dec-25 02:27N 35°27' E 139°43'0 0.0
2017-Dec-25 01:51N 35°27' E 139°43'0 0.0
2017-Dec-25 01:30N 35°27' E 139°43'0 0.0
2017-Dec-25 01:00N 35°27' E 139°43'1 1.6
2017-Dec-25 00:28N 35°27' E 139°42'1 1.7
2017-Dec-25 00:00N 35°27' E 139°43'1 1.4
2017-Dec-24 23:26N 35°27' E 139°42'0 0.0
2017-Dec-24 22:59N 35°27' E 139°42'0 0.0
2017-Dec-24 22:20N 35°27' E 139°42'0 0.0
2017-Dec-24 21:59N 35°27' E 139°42'0 0.1
2017-Dec-24 21:29N 35°27' E 139°42'0 0.0
2017-Dec-24 03:01N 35°27' E 139°42'0 0.2
2017-Dec-24 02:59N 35°27' E 139°42'1 1.5
2017-Dec-24 02:30N 35°27' E 139°43'0 0.8
2017-Dec-24 02:00N 35°28' E 139°42'1 1.6
2017-Dec-24 01:28N 35°27' E 139°43'0 0.0
2017-Dec-24 00:58N 35°27' E 139°43'0 0.1
2017-Dec-24 00:28N 35°27' E 139°44'0 0.7
2017-Dec-23 23:59N 35°27' E 139°43'0 0.1
2017-Dec-23 23:29N 35°27' E 139°43'0 0.0
2017-Dec-23 22:59N 35°27' E 139°43'0 0.0
2017-Dec-23 22:29N 35°27' E 139°43'0 0.1
2017-Dec-23 21:59N 35°27' E 139°43'0 0.0
2017-Dec-23 21:26N 35°27' E 139°43'0 0.0
2017-Dec-23 20:59N 35°27' E 139°43'0 0.0
2017-Dec-23 20:29N 35°27' E 139°43'0 0.0
2017-Dec-23 19:53N 35°27' E 139°43'0 0.0
2017-Dec-23 19:29N 35°27' E 139°43'0 0.0
2017-Dec-23 18:59N 35°27' E 139°43'0 0.0
2017-Dec-23 18:23N 35°27' E 139°43'0 0.0
2017-Dec-23 17:59N 35°27' E 139°43'0 0.0
2017-Dec-23 17:29N 35°27' E 139°43'0 0.0
2017-Dec-23 16:59N 35°27' E 139°43'0 0.0
2017-Dec-23 16:29N 35°27' E 139°43'0 0.0
2017-Dec-23 15:59N 35°27' E 139°43'0 0.0
2017-Dec-23 15:29N 35°27' E 139°43'0 0.0
2017-Dec-23 14:59N 35°27' E 139°43'0 0.0
2017-Dec-23 14:26N 35°27' E 139°43'0 0.0
2017-Dec-23 13:59N 35°27' E 139°43'0 0.0
2017-Dec-23 13:29N 35°27' E 139°43'0 0.0
2017-Dec-23 12:59N 35°27' E 139°43'0 0.0
2017-Dec-23 12:29N 35°27' E 139°43'0 0.0
2017-Dec-23 11:59N 35°27' E 139°43'0 0.0
2017-Dec-23 11:29N 35°27' E 139°43'0 0.0
2017-Dec-23 10:53N 35°27' E 139°43'0 0.0
2017-Dec-23 10:29N 35°27' E 139°43'0 0.0
2017-Dec-23 09:59N 35°27' E 139°43'0 0.0
2017-Dec-23 09:20N 35°27' E 139°43'0 0.0
2017-Dec-23 08:56N 35°27' E 139°43'0 0.0
2017-Dec-23 08:26N 35°27' E 139°43'0 0.0
2017-Dec-23 07:56N 35°27' E 139°43'0 0.3
2017-Dec-23 07:30N 35°27' E 139°43'0 0.4
2017-Dec-23 06:48N 35°27' E 139°44'0 0.0
2017-Dec-23 06:30N 35°27' E 139°44'0 0.0
2017-Dec-23 05:57N 35°27' E 139°44'0 0.0
2017-Dec-23 05:30N 35°27' E 139°44'0 0.7
2017-Dec-23 05:00N 35°27' E 139°43'0 0.2
2017-Dec-23 04:28N 35°27' E 139°43'0 0.0
2017-Dec-23 03:55N 35°27' E 139°43'0 0.0
2017-Dec-23 03:28N 35°27' E 139°43'0 0.0
2017-Dec-23 02:55N 35°27' E 139°43'0 0.2
2017-Dec-23 02:28N 35°27' E 139°43'0 0.7
2017-Dec-23 01:57N 35°27' E 139°44'0 0.0
2017-Dec-23 01:30N 35°27' E 139°44'0 0.0
2017-Dec-23 01:00N 35°27' E 139°44'0 0.0
2017-Dec-23 00:24N 35°27' E 139°44'0 0.0
2017-Dec-22 23:57N 35°27' E 139°44'0 0.5
2017-Dec-22 23:29N 35°27' E 139°43'0 0.0
2017-Dec-22 22:56N 35°27' E 139°43'0 0.0
2017-Dec-22 22:29N 35°27' E 139°43'0 0.0
2017-Dec-22 21:59N 35°27' E 139°43'0 0.0
2017-Dec-22 21:26N 35°27' E 139°43'0 0.0
2017-Dec-22 20:56N 35°27' E 139°43'0 0.0
2017-Dec-22 20:29N 35°27' E 139°43'0 0.0
2017-Dec-22 19:53N 35°27' E 139°43'0 0.0
2017-Dec-22 19:29N 35°27' E 139°43'0 0.0
2017-Dec-22 18:59N 35°27' E 139°43'0 0.0
2017-Dec-22 18:29N 35°27' E 139°43'0 0.0
2017-Dec-22 17:59N 35°27' E 139°43'0 0.0
2017-Dec-22 17:23N 35°27' E 139°43'0 0.0
2017-Dec-22 16:59N 35°27' E 139°43'0 0.0
2017-Dec-22 16:26N 35°27' E 139°43'0 0.0
2017-Dec-22 15:59N 35°27' E 139°43'0 0.0
2017-Dec-22 15:23N 35°27' E 139°43'0 0.0
2017-Dec-22 14:59N 35°27' E 139°43'0 0.0
2017-Dec-22 14:29N 35°27' E 139°43'0 0.0
2017-Dec-22 13:56N 35°27' E 139°43'0 0.0
2017-Dec-22 13:26N 35°27' E 139°43'0 0.0
2017-Dec-22 12:59N 35°27' E 139°43'0 0.0
2017-Dec-22 12:26N 35°27' E 139°43'0 0.0
2017-Dec-22 11:56N 35°27' E 139°43'0 0.0
2017-Dec-22 11:29N 35°27' E 139°43'0 0.0
2017-Dec-22 10:56N 35°27' E 139°43'0 0.0
2017-Dec-22 10:29N 35°27' E 139°43'0 0.0
2017-Dec-22 09:59N 35°27' E 139°43'0 0.0
2017-Dec-22 09:23N 35°27' E 139°43'0 0.0
2017-Dec-22 08:59N 35°27' E 139°43'0 0.0
2017-Dec-22 08:26N 35°27' E 139°43'0 0.0
2017-Dec-22 07:59N 35°27' E 139°43'0 0.2
2017-Dec-22 07:30N 35°27' E 139°43'0 0.6
2017-Dec-22 06:57N 35°27' E 139°44'0 0.0
2017-Dec-22 06:22N 35°27' E 139°44'0 0.0
2017-Dec-22 06:00N 35°27' E 139°44'0 0.4
2017-Dec-22 05:25N 35°27' E 139°43'0 0.0
2017-Dec-22 04:55N 35°27' E 139°43'0 0.0
2017-Dec-22 04:25N 35°27' E 139°43'0 0.0
2017-Dec-22 03:55N 35°27' E 139°43'0 0.0
2017-Dec-22 03:22N 35°27' E 139°43'0 0.0
2017-Dec-22 02:59N 35°27' E 139°43'0 0.5
2017-Dec-22 02:30N 35°27' E 139°44'0 0.0
2017-Dec-22 02:00N 35°27' E 139°44'0 0.0
2017-Dec-22 01:31N 35°27' E 139°44'0 0.0
2017-Dec-22 01:00N 35°27' E 139°44'0 0.0
2017-Dec-22 00:21N 35°27' E 139°44'0 0.4
2017-Dec-22 00:00N 35°27' E 139°43'0 0.4
2017-Dec-21 23:27N 35°27' E 139°43'0 0.0
2017-Dec-21 23:01N 35°27' E 139°43'0 0.0
2017-Dec-21 22:30N 35°27' E 139°43'0 0.0
2017-Dec-21 22:00N 35°27' E 139°43'0 0.1
2017-Dec-21 21:15N 35°27' E 139°43'0 0.0
2017-Dec-21 21:01N 35°27' E 139°43'0 0.0
2017-Dec-21 20:30N 35°27' E 139°43'0 0.0
2017-Dec-21 20:00N 35°27' E 139°43'0 0.0
2017-Dec-21 19:21N 35°27' E 139°43'0 0.0
2017-Dec-21 19:00N 35°27' E 139°43'0 0.0
2017-Dec-21 18:30N 35°27' E 139°43'0 0.0
2017-Dec-21 18:01N 35°27' E 139°43'0 0.0
2017-Dec-21 17:30N 35°27' E 139°43'0 0.0
2017-Dec-21 16:57N 35°27' E 139°43'0 0.0
2017-Dec-21 16:31N 35°27' E 139°43'0 0.0
2017-Dec-21 16:00N 35°27' E 139°43'0 0.0
2017-Dec-21 15:27N 35°27' E 139°43'0 0.0
2017-Dec-21 15:01N 35°27' E 139°43'0 0.0
2017-Dec-21 14:28N 35°27' E 139°43'0 0.0
2017-Dec-21 13:57N 35°27' E 139°43'0 0.0
2017-Dec-21 13:31N 35°27' E 139°43'0 0.0
2017-Dec-21 13:00N 35°27' E 139°43'0 0.0
2017-Dec-21 12:15N 35°27' E 139°43'0 0.0
2017-Dec-21 11:55N 35°27' E 139°43'0 0.0
2017-Dec-21 11:21N 35°27' E 139°43'0 0.0
2017-Dec-21 10:48N 35°27' E 139°43'0 0.0
2017-Dec-21 10:30N 35°27' E 139°43'0 0.0
2017-Dec-21 10:00N 35°27' E 139°43'0 0.0
2017-Dec-21 09:30N 35°27' E 139°43'0 0.0
2017-Dec-21 09:00N 35°27' E 139°43'0 0.0
2017-Dec-21 08:27N 35°27' E 139°43'0 0.0
2017-Dec-21 08:01N 35°27' E 139°43'0 0.0
2017-Dec-21 07:31N 35°27' E 139°43'0 0.2
2017-Dec-21 07:00N 35°27' E 139°43'0 0.6
2017-Dec-21 06:28N 35°27' E 139°44'0 0.0
2017-Dec-21 05:58N 35°27' E 139°44'0 0.0
2017-Dec-21 05:28N 35°27' E 139°44'0 0.0
2017-Dec-21 04:58N 35°27' E 139°44'0 0.0
2017-Dec-21 04:28N 35°27' E 139°44'0 0.0
2017-Dec-21 03:58N 35°27' E 139°44'0 0.6
2017-Dec-21 03:30N 35°27' E 139°43'0 0.2
2017-Dec-21 03:00N 35°27' E 139°43'0 0.0
2017-Dec-21 02:28N 35°27' E 139°43'0 0.0
2017-Dec-21 01:58N 35°27' E 139°43'0 0.0
2017-Dec-21 01:27N 35°27' E 139°43'0 0.0
2017-Dec-21 00:59N 35°27' E 139°43'0 0.4
2017-Dec-21 00:30N 35°28' E 139°43'0 0.6
2017-Dec-20 23:53N 35°27' E 139°44'0 0.1
2017-Dec-20 23:29N 35°27' E 139°44'0 0.0
2017-Dec-20 22:53N 35°27' E 139°44'0 0.0
2017-Dec-20 22:23N 35°27' E 139°44'0 0.2
2017-Dec-20 22:00N 35°27' E 139°44'0 0.5
2017-Dec-20 21:28N 35°27' E 139°43'0 0.0
2017-Dec-20 20:58N 35°27' E 139°43'0 0.0
2017-Dec-20 20:13N 35°27' E 139°43'0 0.0
2017-Dec-20 19:58N 35°27' E 139°43'0 0.0
2017-Dec-20 19:28N 35°27' E 139°43'0 0.0
2017-Dec-20 18:58N 35°27' E 139°43'0 0.0
2017-Dec-20 18:28N 35°27' E 139°43'0 0.0
2017-Dec-20 17:55N 35°27' E 139°43'0 0.0
2017-Dec-20 17:28N 35°27' E 139°43'0 0.0
2017-Dec-20 16:55N 35°27' E 139°43'0 0.0
2017-Dec-20 16:28N 35°27' E 139°43'0 0.0
2017-Dec-20 15:55N 35°27' E 139°43'0 0.0
2017-Dec-20 15:28N 35°27' E 139°43'0 0.0
2017-Dec-20 14:55N 35°27' E 139°43'0 0.0
2017-Dec-20 14:28N 35°27' E 139°43'0 0.0
2017-Dec-20 13:58N 35°27' E 139°43'0 0.0
2017-Dec-20 13:28N 35°27' E 139°43'0 0.0
2017-Dec-20 12:49N 35°27' E 139°43'0 0.0
2017-Dec-20 12:28N 35°27' E 139°43'0 0.0
2017-Dec-20 11:55N 35°27' E 139°43'0 0.0
2017-Dec-20 11:28N 35°27' E 139°43'0 0.0
2017-Dec-20 10:55N 35°27' E 139°43'0 0.0
2017-Dec-20 10:28N 35°27' E 139°43'0 0.0
2017-Dec-20 09:58N 35°27' E 139°43'0 0.0
2017-Dec-20 09:25N 35°27' E 139°43'0 0.0
2017-Dec-20 08:58N 35°27' E 139°43'0 0.0
2017-Dec-20 08:22N 35°27' E 139°43'0 0.0
2017-Dec-20 07:55N 35°27' E 139°43'0 0.0
2017-Dec-20 07:25N 35°27' E 139°43'0 0.0
2017-Dec-20 06:58N 35°27' E 139°43'0 0.0
2017-Dec-20 06:28N 35°27' E 139°43'0 0.0
2017-Dec-20 05:58N 35°27' E 139°43'0 0.0
2017-Dec-20 05:25N 35°27' E 139°43'0 0.0
2017-Dec-20 04:58N 35°27' E 139°43'0 0.0
2017-Dec-20 04:28N 35°27' E 139°43'0 0.5
2017-Dec-20 03:59N 35°27' E 139°44'0 0.0
2017-Dec-20 03:29N 35°27' E 139°44'0 0.0
2017-Dec-20 02:59N 35°27' E 139°44'0 0.0
2017-Dec-20 02:29N 35°27' E 139°44'0 0.4
2017-Dec-20 01:56N 35°27' E 139°43'0 0.0
2017-Dec-20 01:29N 35°27' E 139°43'0 0.0
2017-Dec-20 00:59N 35°27' E 139°43'0 0.0
2017-Dec-20 00:23N 35°27' E 139°43'0 0.0
2017-Dec-19 23:59N 35°27' E 139°43'1 1.7
2017-Dec-19 23:30N 35°28' E 139°42'1 1.4
2017-Dec-19 23:00N 35°27' E 139°43'1 1.5
2017-Dec-19 22:22N 35°27' E 139°42'0 0.0
2017-Dec-19 21:55N 35°28' E 139°42'0 0.0
2017-Dec-19 21:28N 35°28' E 139°42'0 0.0
2017-Dec-19 02:40N 35°27' E 139°42'0 0.0
2017-Dec-19 02:28N 35°27' E 139°42'0 0.0
2017-Dec-19 01:55N 35°28' E 139°42'0 0.0
2017-Dec-19 01:28N 35°28' E 139°42'0 0.0
2017-Dec-19 00:52N 35°27' E 139°42'0 0.0
2017-Dec-19 00:28N 35°28' E 139°42'0 0.0
2017-Dec-18 23:58N 35°28' E 139°42'0 0.0
2017-Dec-18 23:28N 35°28' E 139°42'0 0.0
2017-Dec-18 22:52N 35°27' E 139°42'0 0.0
2017-Dec-18 22:28N 35°27' E 139°42'0 0.0
2017-Dec-18 21:55N 35°28' E 139°42'0 0.0
2017-Dec-18 21:16N 35°28' E 139°42'0 0.0
2017-Dec-18 20:58N 35°28' E 139°42'0 0.0
2017-Dec-18 07:44N 35°28' E 139°42'0 0.4
2017-Dec-18 07:27N 35°28' E 139°42'1 2.8
2017-Dec-18 07:00N 35°27' E 139°44'0 0.0
2017-Dec-18 06:19N 35°27' E 139°44'1 2.7
2017-Dec-18 06:00N 35°28' E 139°43'1 1.6
2017-Dec-18 05:28N 35°27' E 139°44'0 0.3
2017-Dec-18 04:58N 35°27' E 139°43'0 0.3
2017-Dec-18 04:28N 35°27' E 139°43'  
Track history (hours):
 
Tides and Currents Weather Stations Pressure Air Temp Water Temp Dewpoint Dewpoint Depression Visibility Wind Speed Wind Dir Waves Ship Positions

Akimaru No20

Last reported at 2017-Dec-28 04:00 UTC. Time now 2018-Jan-21 08:44 UTC.
Position N 35°30' E 139°50'.
Warning: this ship's position is 24 days out of date.

Length 29 m.

Type: Tug. MMSI: 431400676.

Date/timePositionNaut miles runAvg speedWind from/ knotsBaromVisibWave heightAir tempDewpointWater temp
2017-Dec-28 04:00N 35°30' E 139°50'511.0
2017-Dec-28 03:30N 35°27' E 139°45'510.3
2017-Dec-28 03:00N 35°24' E 139°40'2 2.8
2017-Dec-28 02:24N 35°23' E 139°38'0 0.0
2017-Dec-28 01:54N 35°23' E 139°38'0 0.0
2017-Dec-28 01:24N 35°23' E 139°38'0 0.0
2017-Dec-28 01:00N 35°23' E 139°38'0 0.0
2017-Dec-28 00:27N 35°23' E 139°38'0 0.0
2017-Dec-27 23:45N 35°23' E 139°38'0 0.0
2017-Dec-27 23:25N 35°23' E 139°38'0 0.3
2017-Dec-27 23:00N 35°23' E 139°38'2 3.4
2017-Dec-27 22:29N 35°24' E 139°40'1 2.9
2017-Dec-27 22:00N 35°24' E 139°42'2 4.1
2017-Dec-27 21:29N 35°26' E 139°44'2 3.5
2017-Dec-27 21:00N 35°27' E 139°43'0 0.8
2017-Dec-27 20:30N 35°27' E 139°44'5 9.2
2017-Dec-27 20:00N 35°29' E 139°49'3 0.2
2017-Dec-27 03:58N 35°31' E 139°51'4 7.9
2017-Dec-27 03:27N 35°29' E 139°47'3 6.7
2017-Dec-27 02:58N 35°27' E 139°43'0 0.0
2017-Dec-27 02:28N 35°27' E 139°43'0 0.4
2017-Dec-27 02:00N 35°27' E 139°43'1 1.7
2017-Dec-27 01:30N 35°27' E 139°42'1 1.3
2017-Dec-27 00:55N 35°27' E 139°43'1 2.0
2017-Dec-27 00:29N 35°27' E 139°42'0 0.0
2017-Dec-26 23:59N 35°28' E 139°42'0 0.0
2017-Dec-26 23:29N 35°28' E 139°42'0 0.0
2017-Dec-26 22:59N 35°28' E 139°42'0 0.0
2017-Dec-26 22:29N 35°28' E 139°42'0 0.0
2017-Dec-26 21:56N 35°28' E 139°42'0 0.0
2017-Dec-26 06:51N 35°28' E 139°42'0 0.7
2017-Dec-26 06:29N 35°28' E 139°42'1 1.6
2017-Dec-26 05:58N 35°27' E 139°43'1 1.9
2017-Dec-26 05:30N 35°28' E 139°42'1 1.9
2017-Dec-26 04:59N 35°27' E 139°43'0 0.3
2017-Dec-26 04:30N 35°27' E 139°43'0 0.4
2017-Dec-26 04:00N 35°28' E 139°43'0 0.6
2017-Dec-26 03:27N 35°27' E 139°43'0 0.0
2017-Dec-26 02:54N 35°27' E 139°43'0 0.0
2017-Dec-26 02:27N 35°27' E 139°43'0 0.0
2017-Dec-26 01:57N 35°27' E 139°43'0 0.0
2017-Dec-26 01:30N 35°27' E 139°43'0 0.5
2017-Dec-26 00:59N 35°27' E 139°43'0 0.0
2017-Dec-26 00:26N 35°27' E 139°43'0 0.0
2017-Dec-25 23:59N 35°27' E 139°43'0 0.0
2017-Dec-25 23:29N 35°27' E 139°43'0 0.0
2017-Dec-25 22:56N 35°27' E 139°43'0 0.0
2017-Dec-25 22:26N 35°27' E 139°43'0 0.0
2017-Dec-25 21:59N 35°27' E 139°43'0 0.0
2017-Dec-25 21:29N 35°27' E 139°43'0 0.0
2017-Dec-25 20:59N 35°27' E 139°43'0 0.0
2017-Dec-25 07:07N 35°27' E 139°43'0 0.0
2017-Dec-25 06:58N 35°27' E 139°43'0 0.5
2017-Dec-25 06:30N 35°27' E 139°43'0 0.4
2017-Dec-25 05:59N 35°27' E 139°43'0 0.0
2017-Dec-25 05:20N 35°27' E 139°43'0 0.0
2017-Dec-25 04:59N 35°27' E 139°43'0 0.1
2017-Dec-25 04:23N 35°27' E 139°44'0 0.0
2017-Dec-25 03:56N 35°27' E 139°44'0 0.0
2017-Dec-25 03:20N 35°27' E 139°44'0 0.7
2017-Dec-25 02:54N 35°27' E 139°43'0 0.0
2017-Dec-25 02:27N 35°27' E 139°43'0 0.0
2017-Dec-25 01:51N 35°27' E 139°43'0 0.0
2017-Dec-25 01:30N 35°27' E 139°43'0 0.0
2017-Dec-25 01:00N 35°27' E 139°43'1 1.6
2017-Dec-25 00:28N 35°27' E 139°42'1 1.7
2017-Dec-25 00:00N 35°27' E 139°43'1 1.4
2017-Dec-24 23:26N 35°27' E 139°42'0 0.0
2017-Dec-24 22:59N 35°27' E 139°42'0 0.0
2017-Dec-24 22:20N 35°27' E 139°42'0 0.0
2017-Dec-24 21:59N 35°27' E 139°42'0 0.1
2017-Dec-24 21:29N 35°27' E 139°42'0 0.0
2017-Dec-24 03:01N 35°27' E 139°42'0 0.2
2017-Dec-24 02:59N 35°27' E 139°42'1 1.5
2017-Dec-24 02:30N 35°27' E 139°43'0 0.8
2017-Dec-24 02:00N 35°28' E 139°42'1 1.6
2017-Dec-24 01:28N 35°27' E 139°43'0 0.0
2017-Dec-24 00:58N 35°27' E 139°43'0 0.1
2017-Dec-24 00:28N 35°27' E 139°44'0 0.7
2017-Dec-23 23:59N 35°27' E 139°43'0 0.1
2017-Dec-23 23:29N 35°27' E 139°43'0 0.0
2017-Dec-23 22:59N 35°27' E 139°43'0 0.0
2017-Dec-23 22:29N 35°27' E 139°43'0 0.1
2017-Dec-23 21:59N 35°27' E 139°43'0 0.0
2017-Dec-23 21:26N 35°27' E 139°43'0 0.0
2017-Dec-23 20:59N 35°27' E 139°43'0 0.0
2017-Dec-23 20:29N 35°27' E 139°43'0 0.0
2017-Dec-23 19:53N 35°27' E 139°43'0 0.0
2017-Dec-23 19:29N 35°27' E 139°43'0 0.0
2017-Dec-23 18:59N 35°27' E 139°43'0 0.0
2017-Dec-23 18:23N 35°27' E 139°43'0 0.0
2017-Dec-23 17:59N 35°27' E 139°43'0 0.0
2017-Dec-23 17:29N 35°27' E 139°43'0 0.0
2017-Dec-23 16:59N 35°27' E 139°43'0 0.0
2017-Dec-23 16:29N 35°27' E 139°43'0 0.0
2017-Dec-23 15:59N 35°27' E 139°43'0 0.0
2017-Dec-23 15:29N 35°27' E 139°43'0 0.0
2017-Dec-23 14:59N 35°27' E 139°43'0 0.0
2017-Dec-23 14:26N 35°27' E 139°43'0 0.0
2017-Dec-23 13:59N 35°27' E 139°43'0 0.0
2017-Dec-23 13:29N 35°27' E 139°43'0 0.0
2017-Dec-23 12:59N 35°27' E 139°43'0 0.0
2017-Dec-23 12:29N 35°27' E 139°43'0 0.0
2017-Dec-23 11:59N 35°27' E 139°43'0 0.0
2017-Dec-23 11:29N 35°27' E 139°43'0 0.0
2017-Dec-23 10:53N 35°27' E 139°43'0 0.0
2017-Dec-23 10:29N 35°27' E 139°43'0 0.0
2017-Dec-23 09:59N 35°27' E 139°43'0 0.0
2017-Dec-23 09:20N 35°27' E 139°43'0 0.0
2017-Dec-23 08:56N 35°27' E 139°43'0 0.0
2017-Dec-23 08:26N 35°27' E 139°43'0 0.0
2017-Dec-23 07:56N 35°27' E 139°43'0 0.3
2017-Dec-23 07:30N 35°27' E 139°43'0 0.4
2017-Dec-23 06:48N 35°27' E 139°44'0 0.0
2017-Dec-23 06:30N 35°27' E 139°44'0 0.0
2017-Dec-23 05:57N 35°27' E 139°44'0 0.0
2017-Dec-23 05:30N 35°27' E 139°44'0 0.7
2017-Dec-23 05:00N 35°27' E 139°43'0 0.2
2017-Dec-23 04:28N 35°27' E 139°43'0 0.0
2017-Dec-23 03:55N 35°27' E 139°43'0 0.0
2017-Dec-23 03:28N 35°27' E 139°43'0 0.0
2017-Dec-23 02:55N 35°27' E 139°43'0 0.2
2017-Dec-23 02:28N 35°27' E 139°43'0 0.7
2017-Dec-23 01:57N 35°27' E 139°44'0 0.0
2017-Dec-23 01:30N 35°27' E 139°44'0 0.0
2017-Dec-23 01:00N 35°27' E 139°44'0 0.0
2017-Dec-23 00:24N 35°27' E 139°44'0 0.0
2017-Dec-22 23:57N 35°27' E 139°44'0 0.5
2017-Dec-22 23:29N 35°27' E 139°43'0 0.0
2017-Dec-22 22:56N 35°27' E 139°43'0 0.0
2017-Dec-22 22:29N 35°27' E 139°43'0 0.0
2017-Dec-22 21:59N 35°27' E 139°43'0 0.0
2017-Dec-22 21:26N 35°27' E 139°43'0 0.0
2017-Dec-22 20:56N 35°27' E 139°43'0 0.0
2017-Dec-22 20:29N 35°27' E 139°43'0 0.0
2017-Dec-22 19:53N 35°27' E 139°43'0 0.0
2017-Dec-22 19:29N 35°27' E 139°43'0 0.0
2017-Dec-22 18:59N 35°27' E 139°43'0 0.0
2017-Dec-22 18:29N 35°27' E 139°43'0 0.0
2017-Dec-22 17:59N 35°27' E 139°43'0 0.0
2017-Dec-22 17:23N 35°27' E 139°43'0 0.0
2017-Dec-22 16:59N 35°27' E 139°43'0 0.0
2017-Dec-22 16:26N 35°27' E 139°43'0 0.0
2017-Dec-22 15:59N 35°27' E 139°43'0 0.0
2017-Dec-22 15:23N 35°27' E 139°43'0 0.0
2017-Dec-22 14:59N 35°27' E 139°43'0 0.0
2017-Dec-22 14:29N 35°27' E 139°43'0 0.0
2017-Dec-22 13:56N 35°27' E 139°43'0 0.0
2017-Dec-22 13:26N 35°27' E 139°43'0 0.0
2017-Dec-22 12:59N 35°27' E 139°43'0 0.0
2017-Dec-22 12:26N 35°27' E 139°43'0 0.0
2017-Dec-22 11:56N 35°27' E 139°43'0 0.0
2017-Dec-22 11:29N 35°27' E 139°43'0 0.0
2017-Dec-22 10:56N 35°27' E 139°43'0 0.0
2017-Dec-22 10:29N 35°27' E 139°43'0 0.0
2017-Dec-22 09:59N 35°27' E 139°43'0 0.0
2017-Dec-22 09:23N 35°27' E 139°43'0 0.0
2017-Dec-22 08:59N 35°27' E 139°43'0 0.0
2017-Dec-22 08:26N 35°27' E 139°43'0 0.0
2017-Dec-22 07:59N 35°27' E 139°43'0 0.2
2017-Dec-22 07:30N 35°27' E 139°43'0 0.6
2017-Dec-22 06:57N 35°27' E 139°44'0 0.0
2017-Dec-22 06:22N 35°27' E 139°44'0 0.0
2017-Dec-22 06:00N 35°27' E 139°44'0 0.4
2017-Dec-22 05:25N 35°27' E 139°43'0 0.0
2017-Dec-22 04:55N 35°27' E 139°43'0 0.0
2017-Dec-22 04:25N 35°27' E 139°43'0 0.0
2017-Dec-22 03:55N 35°27' E 139°43'0 0.0
2017-Dec-22 03:22N 35°27' E 139°43'0 0.0
2017-Dec-22 02:59N 35°27' E 139°43'0 0.5
2017-Dec-22 02:30N 35°27' E 139°44'0 0.0
2017-Dec-22 02:00N 35°27' E 139°44'0 0.0
2017-Dec-22 01:31N 35°27' E 139°44'0 0.0
2017-Dec-22 01:00N 35°27' E 139°44'0 0.0
2017-Dec-22 00:21N 35°27' E 139°44'0 0.4
2017-Dec-22 00:00N 35°27' E 139°43'0 0.4
2017-Dec-21 23:27N 35°27' E 139°43'0 0.0
2017-Dec-21 23:01N 35°27' E 139°43'0 0.0
2017-Dec-21 22:30N 35°27' E 139°43'0 0.0
2017-Dec-21 22:00N 35°27' E 139°43'0 0.1
2017-Dec-21 21:15N 35°27' E 139°43'0 0.0
2017-Dec-21 21:01N 35°27' E 139°43'0 0.0
2017-Dec-21 20:30N 35°27' E 139°43'0 0.0
2017-Dec-21 20:00N 35°27' E 139°43'0 0.0
2017-Dec-21 19:21N 35°27' E 139°43'0 0.0
2017-Dec-21 19:00N 35°27' E 139°43'0 0.0
2017-Dec-21 18:30N 35°27' E 139°43'0 0.0
2017-Dec-21 18:01N 35°27' E 139°43'0 0.0
2017-Dec-21 17:30N 35°27' E 139°43'0 0.0
2017-Dec-21 16:57N 35°27' E 139°43'0 0.0
2017-Dec-21 16:31N 35°27' E 139°43'0 0.0
2017-Dec-21 16:00N 35°27' E 139°43'0 0.0
2017-Dec-21 15:27N 35°27' E 139°43'0 0.0
2017-Dec-21 15:01N 35°27' E 139°43'0 0.0
2017-Dec-21 14:28N 35°27' E 139°43'0 0.0
2017-Dec-21 13:57N 35°27' E 139°43'0 0.0
2017-Dec-21 13:31N 35°27' E 139°43'0 0.0
2017-Dec-21 13:00N 35°27' E 139°43'0 0.0
2017-Dec-21 12:15N 35°27' E 139°43'0 0.0
2017-Dec-21 11:55N 35°27' E 139°43'0 0.0
2017-Dec-21 11:21N 35°27' E 139°43'0 0.0
2017-Dec-21 10:48N 35°27' E 139°43'0 0.0
2017-Dec-21 10:30N 35°27' E 139°43'0 0.0
2017-Dec-21 10:00N 35°27' E 139°43'0 0.0
2017-Dec-21 09:30N 35°27' E 139°43'0 0.0
2017-Dec-21 09:00N 35°27' E 139°43'0 0.0
2017-Dec-21 08:27N 35°27' E 139°43'0 0.0
2017-Dec-21 08:01N 35°27' E 139°43'0 0.0
2017-Dec-21 07:31N 35°27' E 139°43'0 0.2
2017-Dec-21 07:00N 35°27' E 139°43'0 0.6
2017-Dec-21 06:28N 35°27' E 139°44'0 0.0
2017-Dec-21 05:58N 35°27' E 139°44'0 0.0
2017-Dec-21 05:28N 35°27' E 139°44'0 0.0
2017-Dec-21 04:58N 35°27' E 139°44'0 0.0
2017-Dec-21 04:28N 35°27' E 139°44'0 0.0
2017-Dec-21 03:58N 35°27' E 139°44'0 0.6
2017-Dec-21 03:30N 35°27' E 139°43'0 0.2
2017-Dec-21 03:00N 35°27' E 139°43'0 0.0
2017-Dec-21 02:28N 35°27' E 139°43'0 0.0
2017-Dec-21 01:58N 35°27' E 139°43'0 0.0
2017-Dec-21 01:27N 35°27' E 139°43'0 0.0
2017-Dec-21 00:59N 35°27' E 139°43'0 0.4
2017-Dec-21 00:30N 35°28' E 139°43'0 0.6
2017-Dec-20 23:53N 35°27' E 139°44'0 0.1
2017-Dec-20 23:29N 35°27' E 139°44'0 0.0
2017-Dec-20 22:53N 35°27' E 139°44'0 0.0
2017-Dec-20 22:23N 35°27' E 139°44'0 0.2
2017-Dec-20 22:00N 35°27' E 139°44'0 0.5
2017-Dec-20 21:28N 35°27' E 139°43'0 0.0
2017-Dec-20 20:58N 35°27' E 139°43'0 0.0
2017-Dec-20 20:13N 35°27' E 139°43'0 0.0
2017-Dec-20 19:58N 35°27' E 139°43'0 0.0
2017-Dec-20 19:28N 35°27' E 139°43'0 0.0
2017-Dec-20 18:58N 35°27' E 139°43'0 0.0
2017-Dec-20 18:28N 35°27' E 139°43'0 0.0
2017-Dec-20 17:55N 35°27' E 139°43'0 0.0
2017-Dec-20 17:28N 35°27' E 139°43'0 0.0
2017-Dec-20 16:55N 35°27' E 139°43'0 0.0
2017-Dec-20 16:28N 35°27' E 139°43'0 0.0
2017-Dec-20 15:55N 35°27' E 139°43'0 0.0
2017-Dec-20 15:28N 35°27' E 139°43'0 0.0
2017-Dec-20 14:55N 35°27' E 139°43'0 0.0
2017-Dec-20 14:28N 35°27' E 139°43'0 0.0
2017-Dec-20 13:58N 35°27' E 139°43'0 0.0
2017-Dec-20 13:28N 35°27' E 139°43'0 0.0
2017-Dec-20 12:49N 35°27' E 139°43'0 0.0
2017-Dec-20 12:28N 35°27' E 139°43'0 0.0
2017-Dec-20 11:55N 35°27' E 139°43'0 0.0
2017-Dec-20 11:28N 35°27' E 139°43'0 0.0
2017-Dec-20 10:55N 35°27' E 139°43'0 0.0
2017-Dec-20 10:28N 35°27' E 139°43'0 0.0
2017-Dec-20 09:58N 35°27' E 139°43'0 0.0
2017-Dec-20 09:25N 35°27' E 139°43'0 0.0
2017-Dec-20 08:58N 35°27' E 139°43'0 0.0
2017-Dec-20 08:22N 35°27' E 139°43'0 0.0
2017-Dec-20 07:55N 35°27' E 139°43'0 0.0
2017-Dec-20 07:25N 35°27' E 139°43'0 0.0
2017-Dec-20 06:58N 35°27' E 139°43'0 0.0
2017-Dec-20 06:28N 35°27' E 139°43'0 0.0
2017-Dec-20 05:58N 35°27' E 139°43'0 0.0
2017-Dec-20 05:25N 35°27' E 139°43'0 0.0
2017-Dec-20 04:58N 35°27' E 139°43'0 0.0
2017-Dec-20 04:28N 35°27' E 139°43'0 0.5
2017-Dec-20 03:59N 35°27' E 139°44'0 0.0
2017-Dec-20 03:29N 35°27' E 139°44'0 0.0
2017-Dec-20 02:59N 35°27' E 139°44'0 0.0
2017-Dec-20 02:29N 35°27' E 139°44'0 0.4
2017-Dec-20 01:56N 35°27' E 139°43'0 0.0
2017-Dec-20 01:29N 35°27' E 139°43'0 0.0
2017-Dec-20 00:59N 35°27' E 139°43'0 0.0
2017-Dec-20 00:23N 35°27' E 139°43'0 0.0
2017-Dec-19 23:59N 35°27' E 139°43'1 1.7
2017-Dec-19 23:30N 35°28' E 139°42'1 1.4
2017-Dec-19 23:00N 35°27' E 139°43'1 1.5
2017-Dec-19 22:22N 35°27' E 139°42'0 0.0
2017-Dec-19 21:55N 35°28' E 139°42'0 0.0
2017-Dec-19 21:28N 35°28' E 139°42'0 0.0
2017-Dec-19 02:40N 35°27' E 139°42'0 0.0
2017-Dec-19 02:28N 35°27' E 139°42'0 0.0
2017-Dec-19 01:55N 35°28' E 139°42'0 0.0
2017-Dec-19 01:28N 35°28' E 139°42'0 0.0
2017-Dec-19 00:52N 35°27' E 139°42'0 0.0
2017-Dec-19 00:28N 35°28' E 139°42'0 0.0
2017-Dec-18 23:58N 35°28' E 139°42'0 0.0
2017-Dec-18 23:28N 35°28' E 139°42'0 0.0
2017-Dec-18 22:52N 35°27' E 139°42'0 0.0
2017-Dec-18 22:28N 35°27' E 139°42'0 0.0
2017-Dec-18 21:55N 35°28' E 139°42'0 0.0
2017-Dec-18 21:16N 35°28' E 139°42'0 0.0
2017-Dec-18 20:58N 35°28' E 139°42'0 0.0
2017-Dec-18 07:44N 35°28' E 139°42'0 0.4
2017-Dec-18 07:27N 35°28' E 139°42'1 2.8
2017-Dec-18 07:00N 35°27' E 139°44'0 0.0
2017-Dec-18 06:19N 35°27' E 139°44'1 2.7
2017-Dec-18 06:00N 35°28' E 139°43'1 1.6
2017-Dec-18 05:28N 35°27' E 139°44'0 0.3
2017-Dec-18 04:58N 35°27' E 139°43'0 0.3
2017-Dec-18 04:28N 35°27' E 139°43'  

Dump ship's entire track history